Time;durP1;ratioP1;P1;durP2;ratioP2;P2;SDS_P1;SDS_P2;PMS_P1;PMS_P2;Temp;Humidity;BMP_temperature;BMP_pressure;BME280_temperature;BME280_humidity;BME280_pressure;Samples;Min_cycle;Max_cycle;Signal;HPM_P1;HPM_P2
2021/11/10 00:02:18;;;;;;;7.68;3.70;;;;;;;;;;5109916;28;20038;-47
2021/11/10 00:04:44;;;;;;;5.88;3.33;;;;;;;;;;5112463;28;20465;-47
2021/11/10 00:07:10;;;;;;;8.25;4.10;;;;;;;;;;5110540;28;20514;-47
2021/11/10 00:09:36;;;;;;;6.70;3.10;;;;;;;;;;5108311;27;20023;-48
2021/11/10 00:12:02;;;;;;;7.80;3.35;;;;;;;;;;5101013;27;20384;-48
2021/11/10 00:14:28;;;;;;;10.48;4.53;;;;;;;;;;5113234;28;20024;-48
2021/11/10 00:16:56;;;;;;;7.20;3.50;;;;;;;;;;5111735;28;20047;-48
2021/11/10 00:19:22;;;;;;;9.60;3.50;;;;;;;;;;5113368;28;20055;-48
2021/11/10 00:21:48;;;;;;;7.13;3.55;;;;;;;;;;5110752;28;20043;-48
2021/11/10 00:24:14;;;;;;;8.43;3.58;;;;;;;;;;5113617;28;20159;-47
2021/11/10 00:26:40;;;;;;;4.65;2.88;;;;;;;;;;5110419;28;20038;-48
2021/11/10 00:29:06;;;;;;;7.60;3.85;;;;;;;;;;5104612;28;20024;-48
2021/11/10 00:31:32;;;;;;;6.60;3.50;;;;;;;;;;5111683;28;20344;-48
2021/11/10 00:33:58;;;;;;;7.57;3.90;;;;;;;;;;5112329;28;20020;-47
2021/11/10 00:36:24;;;;;;;10.48;4.82;;;;;;;;;;5111909;28;20038;-48
2021/11/10 00:38:50;;;;;;;10.25;4.18;;;;;;;;;;5100369;28;20035;-48
2021/11/10 00:41:16;;;;;;;13.40;4.55;;;;;;;;;;5094188;28;20023;-48
2021/11/10 00:43:42;;;;;;;7.03;3.97;;;;;;;;;;5097489;28;20028;-48
2021/11/10 00:46:08;;;;;;;9.70;3.95;;;;;;;;;;5120275;27;20345;-47
2021/11/10 00:48:35;;;;;;;15.65;5.03;;;;;;;;;;5128795;27;20456;-48
2021/11/10 00:51:01;;;;;;;10.98;3.90;;;;;;;;;;5121005;27;20023;-47
2021/11/10 00:53:27;;;;;;;8.65;3.83;;;;;;;;;;5111699;28;20076;-48
2021/11/10 00:55:53;;;;;;;9.63;3.95;;;;;;;;;;5112535;28;20111;-48
2021/11/10 00:58:19;;;;;;;7.53;3.58;;;;;;;;;;5111731;27;20106;-48
2021/11/10 01:00:45;;;;;;;9.13;3.97;;;;;;;;;;5094679;28;20024;-47
2021/11/10 01:03:11;;;;;;;7.05;3.60;;;;;;;;;;5092988;28;20020;-48
2021/11/10 01:05:39;;;;;;;10.27;4.22;;;;;;;;;;5100582;28;20076;-48
2021/11/10 01:08:05;;;;;;;12.93;4.65;;;;;;;;;;5109261;28;20431;-47
2021/11/10 01:10:32;;;;;;;11.50;4.20;;;;;;;;;;5112481;28;20153;-48
2021/11/10 01:12:58;;;;;;;9.18;3.90;;;;;;;;;;5111160;28;20072;-48
2021/11/10 01:15:24;;;;;;;8.85;4.60;;;;;;;;;;5110942;27;20039;-48
2021/11/10 01:17:50;;;;;;;12.05;4.35;;;;;;;;;;5107532;28;20059;-47
2021/11/10 01:20:16;;;;;;;15.15;4.85;;;;;;;;;;5122370;27;20035;-49
2021/11/10 01:22:43;;;;;;;12.68;4.05;;;;;;;;;;5112007;28;20035;-47
2021/11/10 01:25:09;;;;;;;8.05;4.30;;;;;;;;;;5097887;28;20457;-47
2021/11/10 01:27:36;;;;;;;5.90;3.70;;;;;;;;;;5099725;28;20035;-48
2021/11/10 01:30:03;;;;;;;10.00;3.60;;;;;;;;;;5091820;28;20020;-48
2021/11/10 01:32:29;;;;;;;7.53;3.40;;;;;;;;;;5109761;28;20032;-48
2021/11/10 01:34:55;;;;;;;6.95;3.40;;;;;;;;;;5110021;28;20495;-48
2021/11/10 01:37:21;;;;;;;8.95;4.22;;;;;;;;;;5105246;28;20032;-47
2021/11/10 01:39:47;;;;;;;9.73;4.70;;;;;;;;;;5091481;28;20405;-47
2021/11/10 01:42:13;;;;;;;8.85;4.32;;;;;;;;;;5091742;28;20124;-47
2021/11/10 01:44:40;;;;;;;12.55;4.68;;;;;;;;;;5091747;28;20047;-47
2021/11/10 01:47:07;;;;;;;10.45;4.65;;;;;;;;;;5104994;28;20016;-47
2021/11/10 01:49:33;;;;;;;11.45;3.35;;;;;;;;;;5108658;28;20035;-48
2021/11/10 01:51:59;;;;;;;6.15;2.97;;;;;;;;;;5110614;28;20457;-48
2021/11/10 01:54:27;;;;;;;12.30;4.50;;;;;;;;;;5111893;28;20019;-48
2021/11/10 01:56:54;;;;;;;9.07;4.07;;;;;;;;;;5096849;28;20032;-48
2021/11/10 01:59:31;;;;;;;12.85;4.85;;;;;;;;;;5092192;28;20409;-48
2021/11/10 02:01:58;;;;;;;9.43;4.00;;;;;;;;;;5091044;28;20055;-48
2021/11/10 02:04:25;;;;;;;17.85;4.68;;;;;;;;;;5091319;28;20070;-48
2021/11/10 02:06:53;;;;;;;9.32;3.47;;;;;;;;;;5108189;28;20099;-48
2021/11/10 02:09:20;;;;;;;7.57;4.00;;;;;;;;;;5097763;28;20024;-47
2021/11/10 02:11:46;;;;;;;9.98;3.92;;;;;;;;;;5110903;28;20036;-47
2021/11/10 02:14:12;;;;;;;8.50;3.97;;;;;;;;;;5110964;28;20076;-48
2021/11/10 02:16:39;;;;;;;9.38;4.28;;;;;;;;;;5108621;28;20023;-48
2021/11/10 02:19:06;;;;;;;8.85;4.10;;;;;;;;;;5107051;28;20015;-48
2021/11/10 02:21:35;;;;;;;10.52;4.10;;;;;;;;;;5105489;28;20028;-48
2021/11/10 02:24:01;;;;;;;7.05;3.85;;;;;;;;;;5106908;28;20024;-48
2021/11/10 02:26:27;;;;;;;8.60;3.63;;;;;;;;;;5090020;28;20024;-47
2021/11/10 02:28:53;;;;;;;8.07;3.65;;;;;;;;;;5090828;28;20460;-47
2021/11/10 02:31:19;;;;;;;6.93;3.95;;;;;;;;;;5102801;28;20042;-48
2021/11/10 02:33:45;;;;;;;6.38;3.30;;;;;;;;;;5091087;28;20020;-48
2021/11/10 02:36:12;;;;;;;12.32;4.28;;;;;;;;;;5094655;28;20126;-48
2021/11/10 02:38:39;;;;;;;7.57;4.18;;;;;;;;;;5096075;28;20516;-48
2021/11/10 02:41:05;;;;;;;9.52;4.22;;;;;;;;;;5092312;28;20410;-48
2021/11/10 02:43:31;;;;;;;8.10;4.05;;;;;;;;;;5091796;28;20055;-48
2021/11/10 02:45:57;;;;;;;8.75;4.00;;;;;;;;;;5090080;28;20119;-48
2021/11/10 02:48:24;;;;;;;7.45;3.75;;;;;;;;;;5090414;28;20127;-48
2021/11/10 02:50:51;;;;;;;11.85;4.75;;;;;;;;;;5104209;28;20248;-47
2021/11/10 02:53:17;;;;;;;9.20;4.20;;;;;;;;;;5110406;28;20081;-49
2021/11/10 02:55:43;;;;;;;11.73;5.25;;;;;;;;;;5106799;28;20027;-48
2021/11/10 02:58:09;;;;;;;7.53;3.47;;;;;;;;;;5110326;28;20114;-48
2021/11/10 03:00:35;;;;;;;7.30;4.05;;;;;;;;;;5110186;28;20019;-47
2021/11/10 03:03:05;;;;;;;13.63;4.30;;;;;;;;;;5097861;28;20036;-47
2021/11/10 03:05:31;;;;;;;7.15;3.78;;;;;;;;;;5098483;28;20035;-48
2021/11/10 03:07:57;;;;;;;10.23;4.78;;;;;;;;;;5109277;28;20151;-47
2021/11/10 03:10:24;;;;;;;10.25;4.30;;;;;;;;;;5110623;28;20174;-48
2021/11/10 03:12:50;;;;;;;7.47;3.67;;;;;;;;;;5108879;28;20060;-47
2021/11/10 03:15:16;;;;;;;7.75;4.20;;;;;;;;;;5111139;28;20035;-47
2021/11/10 03:17:42;;;;;;;11.40;4.07;;;;;;;;;;5109549;28;20112;-47
2021/11/10 03:20:09;;;;;;;7.82;4.13;;;;;;;;;;5107702;28;20031;-47
2021/11/10 03:22:35;;;;;;;15.25;5.28;;;;;;;;;;5103510;28;20162;-47
2021/11/10 03:25:01;;;;;;;8.02;3.70;;;;;;;;;;5110525;28;20089;-47
2021/11/10 03:27:27;;;;;;;10.30;4.40;;;;;;;;;;5096313;28;20375;-47
2021/11/10 03:29:53;;;;;;;8.75;4.80;;;;;;;;;;5091820;28;20036;-47
2021/11/10 03:32:20;;;;;;;8.93;4.07;;;;;;;;;;5112530;28;20461;-47
2021/11/10 03:34:47;;;;;;;11.73;5.05;;;;;;;;;;5109003;27;20028;-47
2021/11/10 03:37:14;;;;;;;7.40;4.03;;;;;;;;;;5109659;28;20029;-47
2021/11/10 03:39:40;;;;;;;9.77;4.57;;;;;;;;;;5113641;28;20096;-47
2021/11/10 03:42:06;;;;;;;6.88;3.83;;;;;;;;;;5113945;28;20034;-47
2021/11/10 03:44:32;;;;;;;10.10;4.68;;;;;;;;;;5107489;28;20392;-48
2021/11/10 03:46:58;;;;;;;8.82;4.22;;;;;;;;;;5093116;28;20020;-47
2021/11/10 03:49:25;;;;;;;9.35;3.88;;;;;;;;;;5102572;28;20472;-47
2021/11/10 03:51:52;;;;;;;12.20;4.25;;;;;;;;;;5097816;28;20028;-47
2021/11/10 03:54:18;;;;;;;5.22;2.70;;;;;;;;;;5112972;28;20026;-47
2021/11/10 03:56:44;;;;;;;8.15;4.00;;;;;;;;;;5103201;28;20038;-47
2021/11/10 03:59:11;;;;;;;6.53;3.42;;;;;;;;;;5093458;28;20060;-47
2021/11/10 04:01:37;;;;;;;5.68;3.25;;;;;;;;;;5093156;28;20032;-47
2021/11/10 04:04:03;;;;;;;6.72;4.13;;;;;;;;;;5093847;28;20027;-47
2021/11/10 04:06:30;;;;;;;10.10;4.13;;;;;;;;;;5095401;28;20035;-47
2021/11/10 04:08:56;;;;;;;7.07;3.72;;;;;;;;;;5113264;28;20484;-47
2021/11/10 04:11:22;;;;;;;9.85;3.88;;;;;;;;;;5112626;28;20073;-47
2021/11/10 04:13:49;;;;;;;8.57;4.32;;;;;;;;;;5113593;28;20031;-47
2021/11/10 04:16:20;;;;;;;13.63;4.32;;;;;;;;;;5111277;28;20044;-47
2021/11/10 04:18:46;;;;;;;6.88;3.75;;;;;;;;;;5095148;28;20039;-47
2021/11/10 04:21:12;;;;;;;13.63;4.80;;;;;;;;;;5093030;28;20063;-47
2021/11/10 04:23:38;;;;;;;17.45;4.72;;;;;;;;;;5104316;27;20025;-47
2021/11/10 04:26:04;;;;;;;8.52;3.92;;;;;;;;;;5105708;28;20377;-47
2021/11/10 04:28:31;;;;;;;9.27;4.07;;;;;;;;;;5098078;28;20036;-47
2021/11/10 04:30:57;;;;;;;9.82;4.00;;;;;;;;;;5092993;28;20032;-47
2021/11/10 04:33:23;;;;;;;9.98;4.20;;;;;;;;;;5092390;28;20020;-47
2021/11/10 04:35:49;;;;;;;9.82;3.70;;;;;;;;;;5107224;28;20019;-47
2021/11/10 04:38:16;;;;;;;8.10;4.50;;;;;;;;;;5110241;28;20059;-47
2021/11/10 04:40:42;;;;;;;11.43;4.63;;;;;;;;;;5112558;28;20030;-47
2021/11/10 04:43:08;;;;;;;7.50;4.53;;;;;;;;;;5112533;28;20031;-47
2021/11/10 04:45:36;;;;;;;8.55;3.38;;;;;;;;;;5106705;28;20024;-47
2021/11/10 04:48:03;;;;;;;8.98;3.92;;;;;;;;;;5092666;28;20039;-47
2021/11/10 04:50:30;;;;;;;6.53;4.43;;;;;;;;;;5100721;28;20047;-47
2021/11/10 04:52:57;;;;;;;9.27;4.45;;;;;;;;;;5102049;28;20055;-47
2021/11/10 04:55:23;;;;;;;7.10;4.10;;;;;;;;;;5111366;28;20456;-48
2021/11/10 04:57:49;;;;;;;6.53;3.72;;;;;;;;;;5091523;28;20044;-47
2021/11/10 05:00:16;;;;;;;12.55;3.78;;;;;;;;;;5093318;28;20058;-47
2021/11/10 05:02:42;;;;;;;5.53;3.80;;;;;;;;;;5092353;28;20457;-47
2021/11/10 05:05:08;;;;;;;8.70;4.40;;;;;;;;;;5097197;28;20337;-47
2021/11/10 05:07:34;;;;;;;8.55;3.83;;;;;;;;;;5109253;28;20373;-47
2021/11/10 05:10:01;;;;;;;5.90;3.83;;;;;;;;;;5112620;28;20444;-47
2021/11/10 05:12:28;;;;;;;10.80;4.07;;;;;;;;;;5099277;28;20020;-47
2021/11/10 05:14:55;;;;;;;7.03;3.78;;;;;;;;;;5091887;28;20031;-47
2021/11/10 05:17:22;;;;;;;9.98;4.18;;;;;;;;;;5099287;28;20043;-47
2021/11/10 05:19:48;;;;;;;7.60;4.13;;;;;;;;;;5111887;28;20575;-47
2021/11/10 05:22:15;;;;;;;11.80;3.97;;;;;;;;;;5096072;28;20461;-47
2021/11/10 05:24:41;;;;;;;11.00;4.57;;;;;;;;;;5112426;28;20028;-47
2021/11/10 05:27:07;;;;;;;12.63;4.22;;;;;;;;;;5109407;28;20046;-47
2021/11/10 05:29:34;;;;;;;12.40;5.00;;;;;;;;;;5112268;28;20062;-47
2021/11/10 05:32:00;;;;;;;7.32;4.50;;;;;;;;;;5110825;28;20031;-47
2021/11/10 05:34:26;;;;;;;10.00;4.80;;;;;;;;;;5109028;28;20066;-47
2021/11/10 05:36:52;;;;;;;12.63;4.30;;;;;;;;;;5090778;28;20343;-47
2021/11/10 05:39:19;;;;;;;8.48;4.10;;;;;;;;;;5090753;28;20044;-47
2021/11/10 05:41:46;;;;;;;9.05;4.30;;;;;;;;;;5091062;28;20038;-47
2021/11/10 05:44:13;;;;;;;10.38;4.97;;;;;;;;;;5100157;28;20114;-47
2021/11/10 05:46:39;;;;;;;7.88;4.00;;;;;;;;;;5109961;28;20357;-47
2021/11/10 05:49:05;;;;;;;8.85;4.70;;;;;;;;;;5101628;28;20058;-47
2021/11/10 05:51:31;;;;;;;8.65;4.40;;;;;;;;;;5101408;27;20024;-47
2021/11/10 05:53:57;;;;;;;8.73;3.65;;;;;;;;;;5101071;28;20396;-48
2021/11/10 05:56:24;;;;;;;11.02;3.90;;;;;;;;;;5106358;28;20031;-47
2021/11/10 05:58:51;;;;;;;11.35;4.78;;;;;;;;;;5099769;28;20032;-47
2021/11/10 06:01:17;;;;;;;9.98;4.15;;;;;;;;;;5105588;28;20534;-47
2021/11/10 06:03:43;;;;;;;8.23;4.72;;;;;;;;;;5104060;28;20051;-47
2021/11/10 06:06:09;;;;;;;10.50;4.47;;;;;;;;;;5110826;28;20023;-47
2021/11/10 06:08:39;;;;;;;13.98;5.13;;;;;;;;;;5109526;27;20368;-47
2021/11/10 06:11:05;;;;;;;13.00;5.15;;;;;;;;;;5114350;27;20480;-47
2021/11/10 06:13:31;;;;;;;11.40;4.72;;;;;;;;;;5090962;28;20024;-47
2021/11/10 06:15:57;;;;;;;9.85;4.97;;;;;;;;;;5090643;28;20012;-47
2021/11/10 06:18:23;;;;;;;12.45;4.00;;;;;;;;;;5088829;28;20050;-47
2021/11/10 06:20:49;;;;;;;13.27;4.72;;;;;;;;;;5091571;28;20468;-47
2021/11/10 06:23:15;;;;;;;10.63;5.60;;;;;;;;;;5094948;28;20046;-47
2021/11/10 06:25:41;;;;;;;7.75;3.95;;;;;;;;;;5105777;28;20027;-47
2021/11/10 06:28:07;;;;;;;22.15;5.43;;;;;;;;;;5091794;28;20066;-48
2021/11/10 06:30:33;;;;;;;12.93;4.45;;;;;;;;;;5091922;28;20136;-47
2021/11/10 06:33:00;;;;;;;7.50;4.30;;;;;;;;;;5090723;28;20015;-47
2021/11/10 06:35:26;;;;;;;12.02;5.50;;;;;;;;;;5107708;28;21519;-47
2021/11/10 06:37:52;;;;;;;10.68;4.80;;;;;;;;;;5101456;28;20028;-47
2021/11/10 06:40:19;;;;;;;9.32;4.70;;;;;;;;;;5109853;28;20377;-47
2021/11/10 06:42:45;;;;;;;9.32;4.78;;;;;;;;;;5099708;28;20038;-47
2021/11/10 06:45:11;;;;;;;11.13;4.93;;;;;;;;;;5091027;28;20029;-47
2021/11/10 06:47:37;;;;;;;10.85;5.50;;;;;;;;;;5102620;28;20035;-47
2021/11/10 06:50:04;;;;;;;11.07;4.78;;;;;;;;;;5111187;28;20345;-47
2021/11/10 06:52:30;;;;;;;12.07;4.85;;;;;;;;;;5097607;28;20351;-47
2021/11/10 06:54:56;;;;;;;13.20;4.68;;;;;;;;;;5106956;28;20081;-47
2021/11/10 06:57:24;;;;;;;9.90;5.10;;;;;;;;;;5109966;28;20047;-47
2021/11/10 06:59:50;;;;;;;7.70;4.47;;;;;;;;;;5107906;28;20028;-47
2021/11/10 07:02:16;;;;;;;12.10;4.30;;;;;;;;;;5104433;28;20024;-47
2021/11/10 07:04:42;;;;;;;10.57;5.05;;;;;;;;;;5097158;28;20037;-47
2021/11/10 07:07:08;;;;;;;8.70;4.72;;;;;;;;;;5100028;28;20039;-47
2021/11/10 07:09:34;;;;;;;12.30;5.40;;;;;;;;;;5106551;28;20028;-47
2021/11/10 07:12:00;;;;;;;10.73;3.55;;;;;;;;;;5112384;28;20043;-47
2021/11/10 07:14:27;;;;;;;10.65;4.95;;;;;;;;;;5108050;28;20020;-47
2021/11/10 07:16:53;;;;;;;16.80;5.55;;;;;;;;;;5107805;28;20028;-47
2021/11/10 07:19:19;;;;;;;11.05;4.95;;;;;;;;;;5094226;28;20029;-47
2021/11/10 07:21:46;;;;;;;9.27;5.07;;;;;;;;;;5101499;28;20028;-47
2021/11/10 07:24:12;;;;;;;8.02;4.63;;;;;;;;;;5113675;28;20069;-47
2021/11/10 07:26:38;;;;;;;11.15;4.95;;;;;;;;;;5112622;28;20020;-47
2021/11/10 07:29:04;;;;;;;12.95;5.32;;;;;;;;;;5098993;28;20105;-47
2021/11/10 07:31:30;;;;;;;18.30;5.60;;;;;;;;;;5094037;28;20111;-47
2021/11/10 07:33:59;;;;;;;11.80;4.88;;;;;;;;;;5093702;28;20028;-47
2021/11/10 07:36:25;;;;;;;8.50;5.00;;;;;;;;;;5098126;28;20035;-47
2021/11/10 07:38:51;;;;;;;15.18;5.50;;;;;;;;;;5108909;27;20024;-47
2021/11/10 07:41:19;;;;;;;10.02;5.25;;;;;;;;;;5094349;28;20078;-47
2021/11/10 07:43:45;;;;;;;15.35;5.75;;;;;;;;;;5093725;28;20032;-47
2021/11/10 07:46:16;;;;;;;12.15;4.80;;;;;;;;;;5096047;28;20038;-47
2021/11/10 07:48:43;;;;;;;18.33;5.68;;;;;;;;;;5114014;28;20380;-47
2021/11/10 07:51:09;;;;;;;13.45;4.95;;;;;;;;;;5100174;28;20267;-47
2021/11/10 07:53:35;;;;;;;9.88;5.63;;;;;;;;;;5094543;28;20031;-47
2021/11/10 07:56:01;;;;;;;12.13;5.90;;;;;;;;;;5107430;28;20101;-47
2021/11/10 07:58:27;;;;;;;14.07;5.72;;;;;;;;;;5093725;28;20406;-47
2021/11/10 08:00:53;;;;;;;11.20;5.65;;;;;;;;;;5094367;28;20214;-47
2021/11/10 08:03:19;;;;;;;11.52;5.88;;;;;;;;;;5093487;28;20074;-47
2021/11/10 08:05:45;;;;;;;12.88;5.25;;;;;;;;;;5094327;28;20024;-47
2021/11/10 08:08:12;;;;;;;9.55;4.95;;;;;;;;;;5092820;28;20420;-47
2021/11/10 08:10:38;;;;;;;13.38;5.38;;;;;;;;;;5106648;28;20105;-47
2021/11/10 08:13:04;;;;;;;15.20;6.32;;;;;;;;;;5112227;28;20023;-47
2021/11/10 08:15:30;;;;;;;12.10;5.68;;;;;;;;;;5111195;28;20366;-47
2021/11/10 08:17:56;;;;;;;13.45;6.28;;;;;;;;;;5112805;28;20480;-47
2021/11/10 08:20:22;;;;;;;16.25;6.15;;;;;;;;;;5113372;28;20030;-47
2021/11/10 08:22:49;;;;;;;11.40;4.78;;;;;;;;;;5093558;28;20419;-47
2021/11/10 08:25:16;;;;;;;11.20;5.68;;;;;;;;;;5104860;28;20026;-47
2021/11/10 08:27:42;;;;;;;17.48;6.70;;;;;;;;;;5112714;28;20076;-47
2021/11/10 08:30:11;;;;;;;15.07;4.47;;;;;;;;;;5099721;28;20407;-47
2021/11/10 08:32:37;;;;;;;10.82;5.80;;;;;;;;;;5094122;28;20047;-47
2021/11/10 08:35:03;;;;;;;25.63;7.15;;;;;;;;;;5100831;28;20032;-47
2021/11/10 08:37:29;;;;;;;17.25;7.15;;;;;;;;;;5101884;28;20032;-47
2021/11/10 08:39:55;;;;;;;13.13;6.03;;;;;;;;;;5103359;28;20032;-48
2021/11/10 08:42:22;;;;;;;15.10;7.13;;;;;;;;;;5107296;28;20051;-47
2021/11/10 08:44:52;;;;;;;10.40;5.70;;;;;;;;;;5093454;28;20020;-47
2021/11/10 08:47:18;;;;;;;13.07;6.47;;;;;;;;;;5092162;28;20036;-47
2021/11/10 08:49:45;;;;;;;11.93;5.97;;;;;;;;;;5092355;28;20055;-47
2021/11/10 08:52:11;;;;;;;13.55;7.15;;;;;;;;;;5093946;28;20111;-47
2021/11/10 08:54:37;;;;;;;10.93;6.50;;;;;;;;;;5111927;28;20114;-47
2021/11/10 08:57:04;;;;;;;15.00;7.32;;;;;;;;;;5110491;28;20039;-47
2021/11/10 08:59:31;;;;;;;23.45;6.93;;;;;;;;;;5112573;28;20024;-47
2021/11/10 09:01:57;;;;;;;29.90;7.82;;;;;;;;;;5111493;28;20106;-47
2021/11/10 09:04:24;;;;;;;14.68;7.20;;;;;;;;;;5112586;28;20026;-47
2021/11/10 09:06:50;;;;;;;13.57;6.78;;;;;;;;;;5103942;28;20115;-47
2021/11/10 09:09:17;;;;;;;14.43;6.85;;;;;;;;;;5093133;28;20893;-47
2021/11/10 09:11:44;;;;;;;14.85;7.05;;;;;;;;;;5111837;28;20609;-47
2021/11/10 09:14:10;;;;;;;12.82;5.70;;;;;;;;;;5112664;28;20461;-47
2021/11/10 09:16:36;;;;;;;10.55;5.90;;;;;;;;;;5111557;28;20041;-47
2021/11/10 09:19:02;;;;;;;11.00;6.43;;;;;;;;;;5093442;28;20094;-47
2021/11/10 09:21:28;;;;;;;22.50;7.45;;;;;;;;;;5101208;28;20393;-47
2021/11/10 09:23:54;;;;;;;13.05;6.50;;;;;;;;;;5112895;28;20394;-47
2021/11/10 09:26:21;;;;;;;17.33;6.18;;;;;;;;;;5100828;28;20032;-47
2021/11/10 09:28:47;;;;;;;22.25;6.18;;;;;;;;;;5091757;28;20090;-47
2021/11/10 09:31:13;;;;;;;13.50;7.10;;;;;;;;;;5091733;28;20032;-48
2021/11/10 09:33:41;;;;;;;16.17;7.85;;;;;;;;;;5091663;28;20043;-48
2021/11/10 09:36:07;;;;;;;13.10;7.00;;;;;;;;;;5091165;28;20051;-47
2021/11/10 09:38:34;;;;;;;26.88;7.88;;;;;;;;;;5090372;28;20028;-47
2021/11/10 09:41:01;;;;;;;16.08;7.32;;;;;;;;;;5092204;28;20059;-48
2021/11/10 09:43:45;;;;;;;22.08;7.28;;;;;;;;;;5092767;28;20058;-48
2021/11/10 09:46:12;;;;;;;10.82;6.10;;;;;;;;;;5104925;28;20355;-48
2021/11/10 09:48:38;;;;;;;18.73;7.35;;;;;;;;;;5110880;28;20031;-47
2021/11/10 09:51:05;;;;;;;16.00;7.32;;;;;;;;;;5092609;28;20025;-47
2021/11/10 09:53:32;;;;;;;14.43;6.53;;;;;;;;;;5100756;28;20027;-48
2021/11/10 09:55:59;;;;;;;14.68;8.35;;;;;;;;;;5103447;27;20011;-48
2021/11/10 09:58:26;;;;;;;22.65;7.90;;;;;;;;;;5111407;28;20062;-47
2021/11/10 10:00:54;;;;;;;16.70;7.90;;;;;;;;;;5110767;28;20071;-47
2021/11/10 10:03:21;;;;;;;16.13;8.05;;;;;;;;;;5111807;28;20471;-48
2021/11/10 10:05:48;;;;;;;17.27;7.35;;;;;;;;;;5109698;28;20028;-48
2021/11/10 10:08:15;;;;;;;14.43;7.03;;;;;;;;;;5110962;28;20027;-48
2021/11/10 10:10:41;;;;;;;16.17;7.45;;;;;;;;;;5110765;28;20341;-48
2021/11/10 10:13:08;;;;;;;14.55;7.35;;;;;;;;;;5102854;28;20112;-47
2021/11/10 10:15:36;;;;;;;21.95;6.75;;;;;;;;;;5101749;28;20110;-48
2021/11/10 10:18:03;;;;;;;8.07;5.20;;;;;;;;;;5104511;27;20116;-48
2021/11/10 10:20:29;;;;;;;13.07;6.78;;;;;;;;;;5110283;27;20024;-48
2021/11/10 10:22:57;;;;;;;23.67;8.90;;;;;;;;;;5090842;28;20024;-48
2021/11/10 10:25:34;;;;;;;15.15;8.10;;;;;;;;;;5093957;28;20390;-48
2021/11/10 10:28:01;;;;;;;16.50;6.72;;;;;;;;;;5090128;28;20036;-48
2021/11/10 10:30:59;;;;;;;25.23;10.25;;;;;;;;;;5090947;28;20016;-48
2021/11/10 10:33:32;;;;;;;20.98;9.52;;;;;;;;;;5027987;28;20128;-47
2021/11/10 10:36:04;;;;;;;27.33;8.20;;;;;;;;;;5049064;28;20045;-47
2021/11/10 10:38:34;;;;;;;21.52;8.77;;;;;;;;;;5063464;28;20512;-49
2021/11/10 10:41:01;;;;;;;18.35;7.43;;;;;;;;;;5072570;28;20442;-48
2021/11/10 10:43:28;;;;;;;16.13;7.45;;;;;;;;;;5068438;28;20123;-47
2021/11/10 10:45:55;;;;;;;18.05;8.35;;;;;;;;;;5064365;28;20412;-47
2021/11/10 10:48:23;;;;;;;8.93;5.47;;;;;;;;;;5054478;28;20207;-47
2021/11/10 10:50:55;;;;;;;15.57;6.63;;;;;;;;;;5053817;28;20471;-47
2021/11/10 10:53:38;;;;;;;23.65;9.70;;;;;;;;;;5054515;28;20628;-48
2021/11/10 10:56:23;;;;;;;21.38;8.85;;;;;;;;;;5065077;28;20135;-48
2021/11/10 10:58:50;;;;;;;23.45;6.82;;;;;;;;;;5070230;28;20064;-48
2021/11/10 11:01:24;;;;;;;25.50;10.15;;;;;;;;;;5073182;28;20029;-48
2021/11/10 11:03:54;;;;;;;14.63;7.43;;;;;;;;;;5073461;28;20154;-48
2021/11/10 11:06:25;;;;;;;18.88;7.50;;;;;;;;;;5068465;28;20048;-48
2021/11/10 11:08:51;;;;;;;;;;;;;;;;;;5080063;28;20453;-48
2021/11/10 11:11:33;;;;;;;20.83;9.50;;;;;;;;;;5113141;27;19908;-48
2021/11/10 11:14:00;;;;;;;26.02;9.63;;;;;;;;;;5131182;27;20052;-48
2021/11/10 11:16:35;;;;;;;25.88;9.30;;;;;;;;;;5126864;27;20042;-47
2021/11/10 11:19:15;;;;;;;21.75;10.23;;;;;;;;;;5116634;28;20043;-48
2021/11/10 11:21:55;;;;;;;22.42;9.93;;;;;;;;;;5115566;28;20493;-48
2021/11/10 11:24:31;;;;;;;25.23;9.98;;;;;;;;;;5107875;28;20073;-48
2021/11/10 11:27:08;;;;;;;22.75;8.48;;;;;;;;;;5119130;27;20035;-47
2021/11/10 11:29:34;;;;;;;20.05;9.05;;;;;;;;;;5102890;28;20032;-47
2021/11/10 11:32:00;;;;;;;23.48;9.82;;;;;;;;;;5106426;28;20028;-47
2021/11/10 11:34:44;;;;;;;24.60;8.57;;;;;;;;;;5098704;28;20031;-47
2021/11/10 11:37:10;;;;;;;18.35;7.97;;;;;;;;;;5114106;28;20035;-47
2021/11/10 11:39:36;;;;;;;23.55;9.38;;;;;;;;;;5109699;28;20034;-47
2021/11/10 11:42:02;;;;;;;16.83;8.45;;;;;;;;;;5108362;27;20034;-47
2021/11/10 11:44:29;;;;;;;17.17;8.32;;;;;;;;;;5116339;27;20031;-47
2021/11/10 11:46:55;;;;;;;18.65;7.28;;;;;;;;;;5093419;27;20036;-47
2021/11/10 11:49:21;;;;;;;13.52;6.00;;;;;;;;;;5098019;28;20093;-47
2021/11/10 11:51:47;;;;;;;19.45;7.40;;;;;;;;;;5092397;28;20039;-47
2021/11/10 11:54:14;;;;;;;13.93;6.53;;;;;;;;;;5093385;28;20027;-47
2021/11/10 11:56:41;;;;;;;28.38;10.65;;;;;;;;;;5104316;28;20663;-47
2021/11/10 11:59:08;;;;;;;27.55;10.82;;;;;;;;;;5112532;28;20027;-47
2021/11/10 12:01:37;;;;;;;28.10;10.30;;;;;;;;;;5112941;28;20096;-47
2021/11/10 12:04:07;;;;;;;29.70;9.82;;;;;;;;;;5104947;28;20055;-47
2021/11/10 12:06:33;;;;;;;;;;;;;;;;;;5111716;28;20034;-47
2021/11/10 12:09:00;;;;;;;27.13;9.15;;;;;;;;;;5112990;28;19908;-47
2021/11/10 12:11:28;;;;;;;18.40;9.93;;;;;;;;;;5103198;27;20144;-47
2021/11/10 12:14:12;;;;;;;27.98;10.82;;;;;;;;;;5113392;28;20032;-47
2021/11/10 12:16:55;;;;;;;28.42;9.85;;;;;;;;;;5110657;28;20047;-47
2021/11/10 12:19:41;;;;;;;18.90;9.98;;;;;;;;;;5111523;28;20046;-47
2021/11/10 12:22:11;;;;;;;18.17;7.72;;;;;;;;;;5099452;28;20028;-47
2021/11/10 12:24:40;;;;;;;24.15;8.07;;;;;;;;;;5100697;28;20031;-47
2021/11/10 12:27:14;;;;;;;19.20;6.97;;;;;;;;;;5111053;28;20031;-47
2021/11/10 12:29:43;;;;;;;31.85;10.75;;;;;;;;;;5112830;28;20061;-47
2021/11/10 12:32:10;;;;;;;29.65;10.05;;;;;;;;;;5110292;28;20035;-47
2021/11/10 12:34:37;;;;;;;21.90;9.52;;;;;;;;;;5104921;28;20127;-47
2021/11/10 12:37:09;;;;;;;27.35;10.65;;;;;;;;;;5111479;28;20040;-47
2021/11/10 12:39:39;;;;;;;22.55;8.98;;;;;;;;;;5112699;28;20024;-47
2021/11/10 12:42:09;;;;;;;24.88;11.13;;;;;;;;;;5098852;28;20024;-47
2021/11/10 12:44:41;;;;;;;29.83;11.63;;;;;;;;;;5111477;28;20030;-47
2021/11/10 12:47:08;;;;;;;27.52;10.60;;;;;;;;;;5098585;28;20369;-47
2021/11/10 12:49:34;;;;;;;24.15;9.88;;;;;;;;;;5092425;28;20024;-47
2021/11/10 12:52:14;;;;;;;28.55;11.88;;;;;;;;;;5097789;28;20219;-47
2021/11/10 12:54:45;;;;;;;15.23;8.77;;;;;;;;;;5092091;28;20020;-47
2021/11/10 12:57:12;;;;;;;33.78;12.38;;;;;;;;;;5100975;28;20085;-47
2021/11/10 12:59:49;;;;;;;28.55;10.60;;;;;;;;;;5112634;28;20011;-47
2021/11/10 13:02:16;;;;;;;23.75;10.55;;;;;;;;;;5103585;28;20039;-47
2021/11/10 13:04:49;;;;;;;28.67;12.00;;;;;;;;;;5110191;28;20030;-47
2021/11/10 13:07:27;;;;;;;28.50;11.55;;;;;;;;;;5101008;28;20024;-47
2021/11/10 13:10:02;;;;;;;31.67;12.10;;;;;;;;;;5103474;28;20035;-47
2021/11/10 13:12:30;;;;;;;29.10;11.57;;;;;;;;;;5104405;28;20035;-47
2021/11/10 13:14:57;;;;;;;34.30;11.52;;;;;;;;;;5109508;28;20034;-47
2021/11/10 13:17:29;;;;;;;25.25;11.02;;;;;;;;;;5110914;28;20035;-47
2021/11/10 13:20:00;;;;;;;25.00;10.45;;;;;;;;;;5112760;28;20019;-47
2021/11/10 13:22:26;;;;;;;;;;;;;;;;;;5092031;28;20034;-47
2021/11/10 13:24:56;;;;;;;22.02;10.25;;;;;;;;;;5093114;28;19908;-47
2021/11/10 13:27:22;;;;;;;;;;;;;;;;;;5096878;28;20030;-47
2021/11/10 13:29:50;;;;;;;22.33;10.63;;;;;;;;;;5102097;28;20223;-47
2021/11/10 13:32:17;;;;;;;32.47;11.30;;;;;;;;;;5111197;28;20558;-47
2021/11/10 13:34:44;;;;;;;38.60;9.93;;;;;;;;;;5109782;28;20023;-47
2021/11/10 13:37:11;;;;;;;23.88;10.57;;;;;;;;;;5111277;28;20118;-47
2021/11/10 13:39:39;;;;;;;24.25;12.13;;;;;;;;;;5111016;28;20031;-47
2021/11/10 13:42:12;;;;;;;27.27;11.60;;;;;;;;;;5097936;27;20031;-47
2021/11/10 13:44:38;;;;;;;16.02;8.60;;;;;;;;;;5110845;28;20024;-47
2021/11/10 13:47:07;;;;;;;25.83;11.35;;;;;;;;;;5109338;28;20035;-47
2021/11/10 13:49:35;;;;;;;25.23;11.95;;;;;;;;;;5111479;28;20106;-47
2021/11/10 13:52:05;;;;;;;30.00;12.60;;;;;;;;;;5108466;28;20027;-47
2021/11/10 13:54:34;;;;;;;19.58;10.45;;;;;;;;;;5110073;28;20099;-47
2021/11/10 13:57:02;;;;;;;21.50;10.73;;;;;;;;;;5099232;28;20025;-47
2021/11/10 13:59:39;;;;;;;23.00;10.13;;;;;;;;;;5108263;28;20034;-47
2021/11/10 14:02:11;;;;;;;31.20;10.05;;;;;;;;;;5110370;28;20036;-47
2021/11/10 14:04:39;;;;;;;45.70;11.13;;;;;;;;;;5110373;28;20062;-47
2021/11/10 14:07:06;;;;;;;35.78;12.30;;;;;;;;;;5108050;28;20028;-47
2021/11/10 14:09:36;;;;;;;23.05;9.85;;;;;;;;;;5110968;28;20027;-47
2021/11/10 14:12:18;;;;;;;26.55;11.85;;;;;;;;;;5103719;28;20385;-47
2021/11/10 14:14:44;;;;;;;28.23;9.88;;;;;;;;;;5110887;28;20432;-47
2021/11/10 14:17:11;;;;;;;18.17;8.85;;;;;;;;;;5100336;28;20070;-47
2021/11/10 14:19:37;;;;;;;24.88;10.85;;;;;;;;;;5109770;28;20019;-47
2021/11/10 14:22:03;;;;;;;21.50;9.40;;;;;;;;;;5098531;28;20034;-47
2021/11/10 14:24:31;;;;;;;28.63;12.15;;;;;;;;;;5111788;28;20024;-47
2021/11/10 14:27:04;;;;;;;32.75;10.02;;;;;;;;;;5100627;28;20032;-47
2021/11/10 14:29:31;;;;;;;26.67;10.07;;;;;;;;;;5103026;28;20029;-47
2021/11/10 14:31:57;;;;;;;19.60;8.38;;;;;;;;;;5095194;28;20409;-47
2021/11/10 14:34:29;;;;;;;21.35;8.82;;;;;;;;;;5110328;28;20078;-47
2021/11/10 14:36:58;;;;;;;21.35;10.18;;;;;;;;;;5116604;28;20439;-47